Главная страница
METAR-TAF:

METAR-TAF

Аэропорты :

Сочи, Россия

широта: 43-26N, долгота: 039-54E, высота над уровнем моря: 16 м

Текущие метеонаблюдения

Эта сводка был подготовлена 24 минут назад, в 07:00 UTC
Ветер 6 Узел от южный-юго-западный
Температура 20°C
Влажность 46%
Давление 1016 hPa
Видимость 10 км и более

METAR: URSS 290700Z 21003MPS 9999 NSC 20/08 Q1016 WS ALL RWY R02/090070 R06/090070 NOSIG RMK R06/24004MPS QFE760

Время: 10:24 (07:24 UTC)

Прогноз

Эта сводка был подготовлена 2 часа и 28 минут назад, в 04:56 UTC
Прогноз действительный с 29-го 06 UTC до 30-го 06 UTC
Ветер 14 Узел от северо-восточный
Видимость 10 км и более
изменения
С 29-го 06 UTC до 29-го 08 UTC
Ветер 12 Узел от западный с порывами до 21 Узел
изменения
С 29-го 16 UTC до 29-го 17 UTC
Ветер 14 Узел от северо-восточный

TAF: URSS 290456Z 2906/3006 05007MPS 9999 NSC BECMG 2906/2908 28006G11MPS BECMG 2916/2917 05007MPS

Метеонаблюдения и прогнозы для более 4000 аэропортов (сводки METAR и TAF).

Имеющиеся станции представлены на карте желтыми и красными точками.

Чтобы увидеть название станции, наведите на нее мышь.

Затем щелкните, чтобы увидеть метеонаблюдения и метеопрогнозы.

Управление картой: чтобы увеличить масштаб, щелкните зеленые кнопки с черным крестиком; чтобы уменьшить масштаб, щелкните зеленую кнопку с тире; для просмотра соседних карт щелкайте зеленые стрелки.


METAR-TAF: